sensor_id;sensor_type;location;lat;lon;timestamp;temperature;humidity
39925;DHT22;25592;49.986;11.618;2023-10-31T00:00:59;14.30;99.90
39925;DHT22;25592;49.986;11.618;2023-10-31T00:03:44;14.20;99.90
39925;DHT22;25592;49.986;11.618;2023-10-31T00:06:30;14.30;99.90
39925;DHT22;25592;49.986;11.618;2023-10-31T00:09:16;14.20;99.90
39925;DHT22;25592;49.986;11.618;2023-10-31T00:12:01;14.30;99.90
39925;DHT22;25592;49.986;11.618;2023-10-31T00:14:46;14.20;99.90
39925;DHT22;25592;49.986;11.618;2023-10-31T00:17:32;14.30;99.90
39925;DHT22;25592;49.986;11.618;2023-10-31T00:20:18;14.30;99.90
39925;DHT22;25592;49.986;11.618;2023-10-31T00:23:03;14.40;99.90
39925;DHT22;25592;49.986;11.618;2023-10-31T00:25:49;14.50;99.90
39925;DHT22;25592;49.986;11.618;2023-10-31T00:28:34;14.50;99.90
39925;DHT22;25592;49.986;11.618;2023-10-31T00:31:20;14.50;99.90
39925;DHT22;25592;49.986;11.618;2023-10-31T00:34:05;14.50;99.90
39925;DHT22;25592;49.986;11.618;2023-10-31T00:36:50;14.50;99.90
39925;DHT22;25592;49.986;11.618;2023-10-31T00:39:36;14.50;99.90
39925;DHT22;25592;49.986;11.618;2023-10-31T00:42:21;14.40;99.90
39925;DHT22;25592;49.986;11.618;2023-10-31T00:45:08;14.40;99.90
39925;DHT22;25592;49.986;11.618;2023-10-31T00:47:53;14.40;99.90
39925;DHT22;25592;49.986;11.618;2023-10-31T00:50:39;14.40;99.90
39925;DHT22;25592;49.986;11.618;2023-10-31T00:53:24;14.30;99.90
39925;DHT22;25592;49.986;11.618;2023-10-31T00:56:10;14.30;99.90
39925;DHT22;25592;49.986;11.618;2023-10-31T00:58:55;14.30;99.90
39925;DHT22;25592;49.986;11.618;2023-10-31T01:01:42;14.20;99.90
39925;DHT22;25592;49.986;11.618;2023-10-31T01:04:28;14.20;99.90
39925;DHT22;25592;49.986;11.618;2023-10-31T01:07:14;14.10;99.90
39925;DHT22;25592;49.986;11.618;2023-10-31T01:10:02;14.10;99.90
39925;DHT22;25592;49.986;11.618;2023-10-31T01:12:48;14.10;99.90
39925;DHT22;25592;49.986;11.618;2023-10-31T01:15:34;14.20;99.90
39925;DHT22;25592;49.986;11.618;2023-10-31T01:18:19;14.10;99.90
39925;DHT22;25592;49.986;11.618;2023-10-31T01:21:05;14.10;99.90
39925;DHT22;25592;49.986;11.618;2023-10-31T01:23:50;14.10;99.90
39925;DHT22;25592;49.986;11.618;2023-10-31T01:26:36;14.00;99.90
39925;DHT22;25592;49.986;11.618;2023-10-31T01:29:21;14.10;99.90
39925;DHT22;25592;49.986;11.618;2023-10-31T01:32:07;13.90;99.90
39925;DHT22;25592;49.986;11.618;2023-10-31T01:35:05;14.00;99.90
39925;DHT22;25592;49.986;11.618;2023-10-31T01:37:51;14.00;99.90
39925;DHT22;25592;49.986;11.618;2023-10-31T01:40:36;13.90;99.90
39925;DHT22;25592;49.986;11.618;2023-10-31T01:43:36;13.90;99.90
39925;DHT22;25592;49.986;11.618;2023-10-31T01:46:22;13.80;99.90
39925;DHT22;25592;49.986;11.618;2023-10-31T01:49:07;13.90;99.90
39925;DHT22;25592;49.986;11.618;2023-10-31T01:51:53;13.90;99.90
39925;DHT22;25592;49.986;11.618;2023-10-31T01:54:38;14.00;99.90
39925;DHT22;25592;49.986;11.618;2023-10-31T01:57:24;13.90;99.90
39925;DHT22;25592;49.986;11.618;2023-10-31T02:00:10;14.00;99.90
39925;DHT22;25592;49.986;11.618;2023-10-31T02:02:55;14.00;99.90
39925;DHT22;25592;49.986;11.618;2023-10-31T02:05:41;14.00;99.90
39925;DHT22;25592;49.986;11.618;2023-10-31T02:08:27;14.00;99.90
39925;DHT22;25592;49.986;11.618;2023-10-31T02:11:12;14.00;99.90
39925;DHT22;25592;49.986;11.618;2023-10-31T02:13:58;14.00;99.90
39925;DHT22;25592;49.986;11.618;2023-10-31T02:16:43;14.10;99.90
39925;DHT22;25592;49.986;11.618;2023-10-31T02:19:29;14.10;99.90
39925;DHT22;25592;49.986;11.618;2023-10-31T02:22:14;14.00;99.90
39925;DHT22;25592;49.986;11.618;2023-10-31T02:24:59;14.10;99.90
39925;DHT22;25592;49.986;11.618;2023-10-31T02:27:46;13.80;99.90
39925;DHT22;25592;49.986;11.618;2023-10-31T02:30:31;13.70;99.90
39925;DHT22;25592;49.986;11.618;2023-10-31T02:33:17;13.70;99.90
39925;DHT22;25592;49.986;11.618;2023-10-31T02:36:02;13.60;99.90
39925;DHT22;25592;49.986;11.618;2023-10-31T02:38:48;13.60;99.90
39925;DHT22;25592;49.986;11.618;2023-10-31T02:41:33;13.50;99.90
39925;DHT22;25592;49.986;11.618;2023-10-31T02:44:19;15.20;99.90
39925;DHT22;25592;49.986;11.618;2023-10-31T02:47:04;13.60;99.90
39925;DHT22;25592;49.986;11.618;2023-10-31T02:49:50;13.50;99.90
39925;DHT22;25592;49.986;11.618;2023-10-31T02:52:36;13.50;99.90
39925;DHT22;25592;49.986;11.618;2023-10-31T02:55:22;13.50;99.90
39925;DHT22;25592;49.986;11.618;2023-10-31T02:58:07;13.60;99.90
39925;DHT22;25592;49.986;11.618;2023-10-31T03:00:53;13.50;99.90
39925;DHT22;25592;49.986;11.618;2023-10-31T03:03:38;13.60;99.90
39925;DHT22;25592;49.986;11.618;2023-10-31T03:06:24;13.40;99.90
39925;DHT22;25592;49.986;11.618;2023-10-31T03:09:09;13.40;99.90
39925;DHT22;25592;49.986;11.618;2023-10-31T03:11:55;13.40;99.90
39925;DHT22;25592;49.986;11.618;2023-10-31T03:14:42;13.30;99.90
39925;DHT22;25592;49.986;11.618;2023-10-31T03:17:27;13.20;99.90
39925;DHT22;25592;49.986;11.618;2023-10-31T03:22:59;13.30;99.90
39925;DHT22;25592;49.986;11.618;2023-10-31T03:25:45;13.20;99.90
39925;DHT22;25592;49.986;11.618;2023-10-31T03:28:30;13.10;99.90
39925;DHT22;25592;49.986;11.618;2023-10-31T03:31:16;13.00;99.90
39925;DHT22;25592;49.986;11.618;2023-10-31T03:34:01;12.90;99.90
39925;DHT22;25592;49.986;11.618;2023-10-31T03:36:47;13.00;99.90
39925;DHT22;25592;49.986;11.618;2023-10-31T03:39:33;12.90;99.90
39925;DHT22;25592;49.986;11.618;2023-10-31T03:42:18;12.90;99.90
39925;DHT22;25592;49.986;11.618;2023-10-31T03:45:04;12.90;99.90
39925;DHT22;25592;49.986;11.618;2023-10-31T03:47:49;12.80;99.90
39925;DHT22;25592;49.986;11.618;2023-10-31T03:50:35;12.90;99.90
39925;DHT22;25592;49.986;11.618;2023-10-31T03:53:21;12.90;99.90
39925;DHT22;25592;49.986;11.618;2023-10-31T03:56:06;12.90;99.90
39925;DHT22;25592;49.986;11.618;2023-10-31T03:58:52;12.90;99.90
39925;DHT22;25592;49.986;11.618;2023-10-31T04:01:38;12.90;99.90
39925;DHT22;25592;49.986;11.618;2023-10-31T04:04:23;13.00;99.90
39925;DHT22;25592;49.986;11.618;2023-10-31T04:07:09;13.10;99.90
39925;DHT22;25592;49.986;11.618;2023-10-31T04:09:54;13.00;99.90
39925;DHT22;25592;49.986;11.618;2023-10-31T04:12:41;13.00;99.90
39925;DHT22;25592;49.986;11.618;2023-10-31T04:15:26;12.80;99.90
39925;DHT22;25592;49.986;11.618;2023-10-31T04:18:12;12.80;99.90
39925;DHT22;25592;49.986;11.618;2023-10-31T04:20:57;12.70;99.90
39925;DHT22;25592;49.986;11.618;2023-10-31T04:23:43;12.60;99.90
39925;DHT22;25592;49.986;11.618;2023-10-31T04:26:28;12.60;99.90
39925;DHT22;25592;49.986;11.618;2023-10-31T04:29:14;12.50;99.90
39925;DHT22;25592;49.986;11.618;2023-10-31T04:31:59;12.50;99.90
39925;DHT22;25592;49.986;11.618;2023-10-31T04:34:45;12.50;99.90
39925;DHT22;25592;49.986;11.618;2023-10-31T04:37:30;12.40;99.90
39925;DHT22;25592;49.986;11.618;2023-10-31T04:40:19;12.40;99.90
39925;DHT22;25592;49.986;11.618;2023-10-31T04:43:04;12.40;99.90
39925;DHT22;25592;49.986;11.618;2023-10-31T04:45:50;12.50;99.90
39925;DHT22;25592;49.986;11.618;2023-10-31T04:48:35;12.40;99.90
39925;DHT22;25592;49.986;11.618;2023-10-31T04:51:21;12.40;99.90
39925;DHT22;25592;49.986;11.618;2023-10-31T04:54:06;12.40;99.90
39925;DHT22;25592;49.986;11.618;2023-10-31T04:56:52;12.40;99.90
39925;DHT22;25592;49.986;11.618;2023-10-31T04:59:37;12.40;99.90
39925;DHT22;25592;49.986;11.618;2023-10-31T05:02:23;12.40;99.90
39925;DHT22;25592;49.986;11.618;2023-10-31T05:05:08;12.50;99.90
39925;DHT22;25592;49.986;11.618;2023-10-31T05:07:53;12.30;99.90
39925;DHT22;25592;49.986;11.618;2023-10-31T05:10:39;12.20;99.90
39925;DHT22;25592;49.986;11.618;2023-10-31T05:13:24;12.20;99.90
39925;DHT22;25592;49.986;11.618;2023-10-31T05:16:10;12.10;99.90
39925;DHT22;25592;49.986;11.618;2023-10-31T05:18:56;12.00;99.90
39925;DHT22;25592;49.986;11.618;2023-10-31T05:21:44;12.00;99.90
39925;DHT22;25592;49.986;11.618;2023-10-31T05:24:30;12.00;99.90
39925;DHT22;25592;49.986;11.618;2023-10-31T05:27:17;12.00;99.90
39925;DHT22;25592;49.986;11.618;2023-10-31T05:30:03;12.00;99.90
39925;DHT22;25592;49.986;11.618;2023-10-31T05:32:49;11.90;99.90
39925;DHT22;25592;49.986;11.618;2023-10-31T05:35:35;12.00;99.90
39925;DHT22;25592;49.986;11.618;2023-10-31T05:38:20;11.90;99.90
39925;DHT22;25592;49.986;11.618;2023-10-31T05:41:08;11.90;99.90
39925;DHT22;25592;49.986;11.618;2023-10-31T05:43:53;11.90;99.90
39925;DHT22;25592;49.986;11.618;2023-10-31T05:46:39;11.80;99.90
39925;DHT22;25592;49.986;11.618;2023-10-31T05:49:25;11.90;99.90
39925;DHT22;25592;49.986;11.618;2023-10-31T05:52:10;11.90;99.90
39925;DHT22;25592;49.986;11.618;2023-10-31T05:54:56;11.80;99.90
39925;DHT22;25592;49.986;11.618;2023-10-31T05:57:41;11.80;99.90
39925;DHT22;25592;49.986;11.618;2023-10-31T06:00:27;12.00;99.90
39925;DHT22;25592;49.986;11.618;2023-10-31T06:03:12;12.10;99.90
39925;DHT22;25592;49.986;11.618;2023-10-31T06:05:58;12.20;99.90
39925;DHT22;25592;49.986;11.618;2023-10-31T06:08:44;12.00;99.90
39925;DHT22;25592;49.986;11.618;2023-10-31T06:11:31;12.00;99.90
39925;DHT22;25592;49.986;11.618;2023-10-31T06:14:16;12.00;99.90
39925;DHT22;25592;49.986;11.618;2023-10-31T06:17:02;12.00;99.90
39925;DHT22;25592;49.986;11.618;2023-10-31T06:19:48;12.00;99.90
39925;DHT22;25592;49.986;11.618;2023-10-31T06:22:33;12.10;99.90
39925;DHT22;25592;49.986;11.618;2023-10-31T06:25:18;12.00;99.90
39925;DHT22;25592;49.986;11.618;2023-10-31T06:28:04;11.90;99.90
39925;DHT22;25592;49.986;11.618;2023-10-31T06:30:50;11.90;99.90
39925;DHT22;25592;49.986;11.618;2023-10-31T06:33:36;12.00;99.90
39925;DHT22;25592;49.986;11.618;2023-10-31T06:36:21;11.80;99.90
39925;DHT22;25592;49.986;11.618;2023-10-31T06:39:07;12.00;99.90
39925;DHT22;25592;49.986;11.618;2023-10-31T06:41:55;12.10;99.90
39925;DHT22;25592;49.986;11.618;2023-10-31T06:44:41;12.00;99.90
39925;DHT22;25592;49.986;11.618;2023-10-31T06:47:26;12.10;99.90
39925;DHT22;25592;49.986;11.618;2023-10-31T06:50:11;12.00;99.90
39925;DHT22;25592;49.986;11.618;2023-10-31T06:52:57;12.00;99.90
39925;DHT22;25592;49.986;11.618;2023-10-31T06:55:42;11.90;99.90
39925;DHT22;25592;49.986;11.618;2023-10-31T06:58:28;12.00;99.90
39925;DHT22;25592;49.986;11.618;2023-10-31T07:01:14;11.80;99.90
39925;DHT22;25592;49.986;11.618;2023-10-31T07:04:03;11.80;99.90
39925;DHT22;25592;49.986;11.618;2023-10-31T07:06:49;11.90;99.90
39925;DHT22;25592;49.986;11.618;2023-10-31T07:09:39;12.00;99.90
39925;DHT22;25592;49.986;11.618;2023-10-31T07:12:25;12.00;99.90
39925;DHT22;25592;49.986;11.618;2023-10-31T07:15:10;11.90;99.90
39925;DHT22;25592;49.986;11.618;2023-10-31T07:17:55;12.00;99.90
39925;DHT22;25592;49.986;11.618;2023-10-31T07:20:41;12.10;99.90
39925;DHT22;25592;49.986;11.618;2023-10-31T07:23:27;12.20;99.90
39925;DHT22;25592;49.986;11.618;2023-10-31T07:26:12;12.10;99.90
39925;DHT22;25592;49.986;11.618;2023-10-31T07:28:58;11.90;99.90
39925;DHT22;25592;49.986;11.618;2023-10-31T07:31:43;11.80;99.90
39925;DHT22;25592;49.986;11.618;2023-10-31T07:34:29;11.90;99.90
39925;DHT22;25592;49.986;11.618;2023-10-31T07:37:15;11.80;99.90
39925;DHT22;25592;49.986;11.618;2023-10-31T07:40:00;12.00;99.90
39925;DHT22;25592;49.986;11.618;2023-10-31T07:42:46;12.10;99.90
39925;DHT22;25592;49.986;11.618;2023-10-31T07:45:31;12.00;99.90
39925;DHT22;25592;49.986;11.618;2023-10-31T07:48:17;12.00;99.90
39925;DHT22;25592;49.986;11.618;2023-10-31T07:51:03;12.00;99.90
39925;DHT22;25592;49.986;11.618;2023-10-31T07:53:49;12.00;99.90
39925;DHT22;25592;49.986;11.618;2023-10-31T07:56:34;11.90;99.90
39925;DHT22;25592;49.986;11.618;2023-10-31T07:59:21;12.00;99.90
39925;DHT22;25592;49.986;11.618;2023-10-31T08:02:06;12.20;99.90
39925;DHT22;25592;49.986;11.618;2023-10-31T08:04:52;12.20;99.90
39925;DHT22;25592;49.986;11.618;2023-10-31T08:07:38;12.20;99.90
39925;DHT22;25592;49.986;11.618;2023-10-31T08:10:23;12.20;99.90
39925;DHT22;25592;49.986;11.618;2023-10-31T08:13:09;12.10;99.90
39925;DHT22;25592;49.986;11.618;2023-10-31T08:15:54;12.10;99.90
39925;DHT22;25592;49.986;11.618;2023-10-31T08:18:39;11.90;99.90
39925;DHT22;25592;49.986;11.618;2023-10-31T08:21:25;11.90;99.90
39925;DHT22;25592;49.986;11.618;2023-10-31T08:24:13;11.80;99.90
39925;DHT22;25592;49.986;11.618;2023-10-31T08:26:58;11.80;99.90
39925;DHT22;25592;49.986;11.618;2023-10-31T08:29:44;11.70;99.90
39925;DHT22;25592;49.986;11.618;2023-10-31T08:32:30;11.50;99.90
39925;DHT22;25592;49.986;11.618;2023-10-31T08:35:15;11.50;99.90
39925;DHT22;25592;49.986;11.618;2023-10-31T08:38:01;11.40;99.90
39925;DHT22;25592;49.986;11.618;2023-10-31T08:40:46;11.50;99.90
39925;DHT22;25592;49.986;11.618;2023-10-31T08:43:32;11.60;99.90
39925;DHT22;25592;49.986;11.618;2023-10-31T08:46:18;11.70;99.90
39925;DHT22;25592;49.986;11.618;2023-10-31T08:49:04;11.70;99.90
39925;DHT22;25592;49.986;11.618;2023-10-31T08:51:49;11.70;99.90
39925;DHT22;25592;49.986;11.618;2023-10-31T08:54:35;11.70;99.90
39925;DHT22;25592;49.986;11.618;2023-10-31T08:57:20;11.90;99.90
39925;DHT22;25592;49.986;11.618;2023-10-31T09:00:06;11.80;99.90
39925;DHT22;25592;49.986;11.618;2023-10-31T09:02:52;11.80;99.90
39925;DHT22;25592;49.986;11.618;2023-10-31T09:05:37;12.00;99.90
39925;DHT22;25592;49.986;11.618;2023-10-31T09:08:23;12.00;99.90
39925;DHT22;25592;49.986;11.618;2023-10-31T09:11:08;12.00;99.90
39925;DHT22;25592;49.986;11.618;2023-10-31T09:13:54;11.80;99.90
39925;DHT22;25592;49.986;11.618;2023-10-31T09:16:39;11.80;99.90
39925;DHT22;25592;49.986;11.618;2023-10-31T09:19:25;12.00;99.90
39925;DHT22;25592;49.986;11.618;2023-10-31T09:22:11;12.10;99.90
39925;DHT22;25592;49.986;11.618;2023-10-31T09:24:56;12.00;99.90
39925;DHT22;25592;49.986;11.618;2023-10-31T09:27:42;12.00;99.90
39925;DHT22;25592;49.986;11.618;2023-10-31T09:30:28;12.00;99.90
39925;DHT22;25592;49.986;11.618;2023-10-31T09:33:13;12.10;99.90
39925;DHT22;25592;49.986;11.618;2023-10-31T09:35:59;12.20;99.90
39925;DHT22;25592;49.986;11.618;2023-10-31T09:38:45;12.20;99.90
39925;DHT22;25592;49.986;11.618;2023-10-31T09:41:31;12.10;99.90
39925;DHT22;25592;49.986;11.618;2023-10-31T09:44:17;12.20;99.90
39925;DHT22;25592;49.986;11.618;2023-10-31T09:47:03;12.30;99.80
39925;DHT22;25592;49.986;11.618;2023-10-31T09:49:48;12.30;99.90
39925;DHT22;25592;49.986;11.618;2023-10-31T09:52:35;12.20;99.90
39925;DHT22;25592;49.986;11.618;2023-10-31T09:55:22;12.20;99.50
39925;DHT22;25592;49.986;11.618;2023-10-31T09:58:08;12.30;99.90
39925;DHT22;25592;49.986;11.618;2023-10-31T10:00:53;12.30;99.90
39925;DHT22;25592;49.986;11.618;2023-10-31T10:03:40;12.40;99.90
39925;DHT22;25592;49.986;11.618;2023-10-31T10:06:26;12.50;99.70
39925;DHT22;25592;49.986;11.618;2023-10-31T10:09:12;12.30;99.70
39925;DHT22;25592;49.986;11.618;2023-10-31T10:12:01;12.30;99.90
39925;DHT22;25592;49.986;11.618;2023-10-31T10:14:47;12.30;99.90
39925;DHT22;25592;49.986;11.618;2023-10-31T10:17:32;12.40;99.90
39925;DHT22;25592;49.986;11.618;2023-10-31T10:20:19;12.50;99.50
39925;DHT22;25592;49.986;11.618;2023-10-31T10:23:04;12.40;99.80
39925;DHT22;25592;49.986;11.618;2023-10-31T10:25:50;12.30;99.40
39925;DHT22;25592;49.986;11.618;2023-10-31T10:28:36;12.20;99.40
39925;DHT22;25592;49.986;11.618;2023-10-31T10:31:24;12.20;99.40
39925;DHT22;25592;49.986;11.618;2023-10-31T10:34:09;12.20;99.60
39925;DHT22;25592;49.986;11.618;2023-10-31T10:36:55;12.20;99.70
39925;DHT22;25592;49.986;11.618;2023-10-31T10:39:43;12.10;99.80
39925;DHT22;25592;49.986;11.618;2023-10-31T10:42:45;12.30;99.90
39925;DHT22;25592;49.986;11.618;2023-10-31T10:45:31;12.30;99.90
39925;DHT22;25592;49.986;11.618;2023-10-31T10:48:20;12.30;99.90
39925;DHT22;25592;49.986;11.618;2023-10-31T10:51:18;12.40;99.90
39925;DHT22;25592;49.986;11.618;2023-10-31T10:54:15;12.40;99.90
39925;DHT22;25592;49.986;11.618;2023-10-31T10:57:13;12.40;99.70
39925;DHT22;25592;49.986;11.618;2023-10-31T11:00:03;12.40;99.80
39925;DHT22;25592;49.986;11.618;2023-10-31T11:02:49;12.40;99.90
39925;DHT22;25592;49.986;11.618;2023-10-31T11:05:38;12.50;99.80
39925;DHT22;25592;49.986;11.618;2023-10-31T11:08:25;12.40;99.80
39925;DHT22;25592;49.986;11.618;2023-10-31T11:11:11;12.30;99.90
39925;DHT22;25592;49.986;11.618;2023-10-31T11:13:57;12.20;99.90
39925;DHT22;25592;49.986;11.618;2023-10-31T11:16:48;12.20;99.90
39925;DHT22;25592;49.986;11.618;2023-10-31T11:19:34;12.20;99.90
39925;DHT22;25592;49.986;11.618;2023-10-31T11:22:21;12.20;99.90
39925;DHT22;25592;49.986;11.618;2023-10-31T11:25:16;12.20;99.90
39925;DHT22;25592;49.986;11.618;2023-10-31T11:28:15;12.30;99.90
39925;DHT22;25592;49.986;11.618;2023-10-31T11:31:01;12.30;99.90
39925;DHT22;25592;49.986;11.618;2023-10-31T11:33:48;12.20;99.90
39925;DHT22;25592;49.986;11.618;2023-10-31T11:36:35;12.20;99.90
39925;DHT22;25592;49.986;11.618;2023-10-31T11:39:22;12.20;99.90
39925;DHT22;25592;49.986;11.618;2023-10-31T11:42:20;12.30;99.90
39925;DHT22;25592;49.986;11.618;2023-10-31T11:45:07;12.20;99.90
39925;DHT22;25592;49.986;11.618;2023-10-31T11:47:53;12.20;99.90
39925;DHT22;25592;49.986;11.618;2023-10-31T11:50:39;12.10;99.90
39925;DHT22;25592;49.986;11.618;2023-10-31T11:53:25;12.10;99.90
39925;DHT22;25592;49.986;11.618;2023-10-31T11:56:11;12.20;99.90
39925;DHT22;25592;49.986;11.618;2023-10-31T11:59:04;12.20;99.90
39925;DHT22;25592;49.986;11.618;2023-10-31T12:01:51;12.40;99.90
39925;DHT22;25592;49.986;11.618;2023-10-31T12:04:37;12.40;99.90
39925;DHT22;25592;49.986;11.618;2023-10-31T12:07:23;12.50;99.90
39925;DHT22;25592;49.986;11.618;2023-10-31T12:10:08;12.40;99.90
39925;DHT22;25592;49.986;11.618;2023-10-31T12:12:54;12.30;99.90
39925;DHT22;25592;49.986;11.618;2023-10-31T12:15:51;12.30;99.90
39925;DHT22;25592;49.986;11.618;2023-10-31T12:18:37;12.40;99.90
39925;DHT22;25592;49.986;11.618;2023-10-31T12:21:45;12.40;99.90
39925;DHT22;25592;49.986;11.618;2023-10-31T12:24:35;12.50;99.90
39925;DHT22;25592;49.986;11.618;2023-10-31T12:27:21;12.50;99.90
39925;DHT22;25592;49.986;11.618;2023-10-31T12:30:07;12.50;99.90
39925;DHT22;25592;49.986;11.618;2023-10-31T12:32:54;12.60;99.90
39925;DHT22;25592;49.986;11.618;2023-10-31T12:35:41;12.50;99.90
39925;DHT22;25592;49.986;11.618;2023-10-31T12:38:27;12.60;99.90
39925;DHT22;25592;49.986;11.618;2023-10-31T12:41:13;12.60;99.90
39925;DHT22;25592;49.986;11.618;2023-10-31T12:44:00;12.70;99.90
39925;DHT22;25592;49.986;11.618;2023-10-31T12:46:46;12.70;99.90
39925;DHT22;25592;49.986;11.618;2023-10-31T12:49:32;12.80;99.90
39925;DHT22;25592;49.986;11.618;2023-10-31T12:52:18;12.90;99.90
39925;DHT22;25592;49.986;11.618;2023-10-31T12:55:13;12.90;99.90
39925;DHT22;25592;49.986;11.618;2023-10-31T12:58:01;12.90;99.90
39925;DHT22;25592;49.986;11.618;2023-10-31T13:00:47;12.90;99.90
39925;DHT22;25592;49.986;11.618;2023-10-31T13:03:33;13.00;99.90
39925;DHT22;25592;49.986;11.618;2023-10-31T13:06:33;13.10;99.90
39925;DHT22;25592;49.986;11.618;2023-10-31T13:09:19;13.20;99.90
39925;DHT22;25592;49.986;11.618;2023-10-31T13:12:06;13.00;99.90
39925;DHT22;25592;49.986;11.618;2023-10-31T13:14:52;13.00;99.90
39925;DHT22;25592;49.986;11.618;2023-10-31T13:17:37;12.90;99.90
39925;DHT22;25592;49.986;11.618;2023-10-31T13:20:23;12.90;99.90
39925;DHT22;25592;49.986;11.618;2023-10-31T13:23:09;12.70;99.90
39925;DHT22;25592;49.986;11.618;2023-10-31T13:25:54;12.80;99.90
39925;DHT22;25592;49.986;11.618;2023-10-31T13:28:39;12.70;99.90
39925;DHT22;25592;49.986;11.618;2023-10-31T13:31:25;12.60;99.90
39925;DHT22;25592;49.986;11.618;2023-10-31T13:34:11;12.70;99.90
39925;DHT22;25592;49.986;11.618;2023-10-31T13:36:56;12.90;99.90
39925;DHT22;25592;49.986;11.618;2023-10-31T13:39:42;13.10;99.90
39925;DHT22;25592;49.986;11.618;2023-10-31T13:42:27;13.10;99.90
39925;DHT22;25592;49.986;11.618;2023-10-31T13:45:13;13.00;99.60
39925;DHT22;25592;49.986;11.618;2023-10-31T13:47:59;13.00;99.50
39925;DHT22;25592;49.986;11.618;2023-10-31T13:50:44;13.00;99.70
39925;DHT22;25592;49.986;11.618;2023-10-31T13:53:30;12.90;99.60
39925;DHT22;25592;49.986;11.618;2023-10-31T13:56:16;13.00;99.40
39925;DHT22;25592;49.986;11.618;2023-10-31T13:59:03;12.90;99.30
39925;DHT22;25592;49.986;11.618;2023-10-31T14:01:48;12.80;99.40
39925;DHT22;25592;49.986;11.618;2023-10-31T14:04:34;13.00;99.60
39925;DHT22;25592;49.986;11.618;2023-10-31T14:07:21;13.20;99.20
39925;DHT22;25592;49.986;11.618;2023-10-31T14:10:08;13.20;99.10
39925;DHT22;25592;49.986;11.618;2023-10-31T14:12:53;13.20;98.80
39925;DHT22;25592;49.986;11.618;2023-10-31T14:15:41;12.90;98.90
39925;DHT22;25592;49.986;11.618;2023-10-31T14:18:26;12.90;98.80
39925;DHT22;25592;49.986;11.618;2023-10-31T14:21:12;12.80;99.20
39925;DHT22;25592;49.986;11.618;2023-10-31T14:23:57;12.80;98.60
39925;DHT22;25592;49.986;11.618;2023-10-31T14:26:55;12.80;98.70
39925;DHT22;25592;49.986;11.618;2023-10-31T14:29:40;12.90;99.90
39925;DHT22;25592;49.986;11.618;2023-10-31T14:32:26;12.90;98.70
39925;DHT22;25592;49.986;11.618;2023-10-31T14:35:11;12.90;98.30
39925;DHT22;25592;49.986;11.618;2023-10-31T14:37:57;12.70;98.40
39925;DHT22;25592;49.986;11.618;2023-10-31T14:40:42;12.60;98.50
39925;DHT22;25592;49.986;11.618;2023-10-31T14:43:28;12.60;98.50
39925;DHT22;25592;49.986;11.618;2023-10-31T14:46:13;12.50;98.50
39925;DHT22;25592;49.986;11.618;2023-10-31T14:48:59;12.60;98.70
39925;DHT22;25592;49.986;11.618;2023-10-31T14:51:44;12.50;98.20
39925;DHT22;25592;49.986;11.618;2023-10-31T14:54:30;12.50;98.40
39925;DHT22;25592;49.986;11.618;2023-10-31T14:57:16;12.50;98.70
39925;DHT22;25592;49.986;11.618;2023-10-31T15:00:02;12.50;98.70
39925;DHT22;25592;49.986;11.618;2023-10-31T15:02:47;12.60;98.70
39925;DHT22;25592;49.986;11.618;2023-10-31T15:05:33;12.50;98.70
39925;DHT22;25592;49.986;11.618;2023-10-31T15:08:19;12.60;98.50
39925;DHT22;25592;49.986;11.618;2023-10-31T15:11:04;12.50;98.50
39925;DHT22;25592;49.986;11.618;2023-10-31T15:13:50;12.60;98.80
39925;DHT22;25592;49.986;11.618;2023-10-31T15:16:35;12.70;98.50
39925;DHT22;25592;49.986;11.618;2023-10-31T15:19:21;12.50;98.40
39925;DHT22;25592;49.986;11.618;2023-10-31T15:22:07;12.60;98.80
39925;DHT22;25592;49.986;11.618;2023-10-31T15:24:52;12.70;98.40
39925;DHT22;25592;49.986;11.618;2023-10-31T15:27:38;12.60;98.20
39925;DHT22;25592;49.986;11.618;2023-10-31T15:30:23;12.40;98.30
39925;DHT22;25592;49.986;11.618;2023-10-31T15:33:08;12.40;98.40
39925;DHT22;25592;49.986;11.618;2023-10-31T15:35:54;12.50;98.40
39925;DHT22;25592;49.986;11.618;2023-10-31T15:38:40;12.50;98.30
39925;DHT22;25592;49.986;11.618;2023-10-31T15:41:25;12.40;98.30
39925;DHT22;25592;49.986;11.618;2023-10-31T15:44:11;12.40;98.40
39925;DHT22;25592;49.986;11.618;2023-10-31T15:46:56;12.40;98.50
39925;DHT22;25592;49.986;11.618;2023-10-31T15:49:42;12.40;98.10
39925;DHT22;25592;49.986;11.618;2023-10-31T15:52:28;12.40;98.30
39925;DHT22;25592;49.986;11.618;2023-10-31T15:55:14;12.50;98.10
39925;DHT22;25592;49.986;11.618;2023-10-31T15:57:59;12.60;98.30
39925;DHT22;25592;49.986;11.618;2023-10-31T16:00:45;12.70;98.10
39925;DHT22;25592;49.986;11.618;2023-10-31T16:03:30;12.70;98.20
39925;DHT22;25592;49.986;11.618;2023-10-31T16:06:16;12.80;98.20
39925;DHT22;25592;49.986;11.618;2023-10-31T16:09:02;12.90;98.10
39925;DHT22;25592;49.986;11.618;2023-10-31T16:11:48;13.00;98.00
39925;DHT22;25592;49.986;11.618;2023-10-31T16:14:34;13.00;97.90
39925;DHT22;25592;49.986;11.618;2023-10-31T16:17:20;13.10;97.80
39925;DHT22;25592;49.986;11.618;2023-10-31T16:20:06;13.20;97.60
39925;DHT22;25592;49.986;11.618;2023-10-31T16:22:52;13.10;97.80
39925;DHT22;25592;49.986;11.618;2023-10-31T16:25:37;13.20;97.80
39925;DHT22;25592;49.986;11.618;2023-10-31T16:28:23;13.30;97.70
39925;DHT22;25592;49.986;11.618;2023-10-31T16:31:08;13.20;97.50
39925;DHT22;25592;49.986;11.618;2023-10-31T16:33:54;13.10;97.50
39925;DHT22;25592;49.986;11.618;2023-10-31T16:36:40;13.10;97.70
39925;DHT22;25592;49.986;11.618;2023-10-31T16:39:25;13.10;97.70
39925;DHT22;25592;49.986;11.618;2023-10-31T16:42:11;13.10;97.50
39925;DHT22;25592;49.986;11.618;2023-10-31T16:44:56;13.00;97.60
39925;DHT22;25592;49.986;11.618;2023-10-31T16:47:42;13.10;97.60
39925;DHT22;25592;49.986;11.618;2023-10-31T16:50:29;13.10;97.70
39925;DHT22;25592;49.986;11.618;2023-10-31T16:53:15;13.00;97.70
39925;DHT22;25592;49.986;11.618;2023-10-31T16:56:00;12.90;97.90
39925;DHT22;25592;49.986;11.618;2023-10-31T16:58:46;13.00;98.10
39925;DHT22;25592;49.986;11.618;2023-10-31T17:01:31;12.90;97.70
39925;DHT22;25592;49.986;11.618;2023-10-31T17:04:17;12.90;97.70
39925;DHT22;25592;49.986;11.618;2023-10-31T17:07:02;12.90;98.30
39925;DHT22;25592;49.986;11.618;2023-10-31T17:09:48;12.90;98.00
39925;DHT22;25592;49.986;11.618;2023-10-31T17:12:34;12.90;98.10
39925;DHT22;25592;49.986;11.618;2023-10-31T17:15:19;12.90;98.00